sensor_id;sensor_type;location;lat;lon;timestamp;temperature;humidity
28484;DHT22;15704;48.834;8.736;2023-04-03T00:01:23;2.80;99.90
28484;DHT22;15704;48.834;8.736;2023-04-03T00:03:50;2.70;99.90
28484;DHT22;15704;48.834;8.736;2023-04-03T00:06:18;2.70;99.90
28484;DHT22;15704;48.834;8.736;2023-04-03T00:08:45;2.80;99.90
28484;DHT22;15704;48.834;8.736;2023-04-03T00:11:12;2.80;99.90
28484;DHT22;15704;48.834;8.736;2023-04-03T00:13:39;2.80;99.90
28484;DHT22;15704;48.834;8.736;2023-04-03T00:16:07;2.60;99.90
28484;DHT22;15704;48.834;8.736;2023-04-03T00:18:35;2.70;99.90
28484;DHT22;15704;48.834;8.736;2023-04-03T00:21:02;2.70;99.90
28484;DHT22;15704;48.834;8.736;2023-04-03T00:23:29;2.80;99.90
28484;DHT22;15704;48.834;8.736;2023-04-03T00:25:55;2.50;99.90
28484;DHT22;15704;48.834;8.736;2023-04-03T00:28:23;2.40;99.90
28484;DHT22;15704;48.834;8.736;2023-04-03T00:30:50;2.40;99.90
28484;DHT22;15704;48.834;8.736;2023-04-03T00:33:18;2.40;99.90
28484;DHT22;15704;48.834;8.736;2023-04-03T00:35:48;2.40;99.90
28484;DHT22;15704;48.834;8.736;2023-04-03T00:38:16;2.30;99.90
28484;DHT22;15704;48.834;8.736;2023-04-03T00:40:46;2.30;99.90
28484;DHT22;15704;48.834;8.736;2023-04-03T00:43:21;2.40;99.90
28484;DHT22;15704;48.834;8.736;2023-04-03T00:45:50;2.40;99.90
28484;DHT22;15704;48.834;8.736;2023-04-03T00:48:22;2.40;99.90
28484;DHT22;15704;48.834;8.736;2023-04-03T00:50:49;2.40;99.90
28484;DHT22;15704;48.834;8.736;2023-04-03T00:53:21;2.40;99.90
28484;DHT22;15704;48.834;8.736;2023-04-03T00:55:50;2.40;99.90
28484;DHT22;15704;48.834;8.736;2023-04-03T00:58:19;2.40;99.90
28484;DHT22;15704;48.834;8.736;2023-04-03T01:00:50;2.40;99.90
28484;DHT22;15704;48.834;8.736;2023-04-03T01:03:22;2.30;99.90
28484;DHT22;15704;48.834;8.736;2023-04-03T01:05:50;2.30;99.90
28484;DHT22;15704;48.834;8.736;2023-04-03T01:08:17;2.30;99.90
28484;DHT22;15704;48.834;8.736;2023-04-03T01:10:44;2.30;99.90
28484;DHT22;15704;48.834;8.736;2023-04-03T01:13:26;2.20;99.90
28484;DHT22;15704;48.834;8.736;2023-04-03T01:15:54;2.20;99.90
28484;DHT22;15704;48.834;8.736;2023-04-03T01:18:22;2.20;99.90
28484;DHT22;15704;48.834;8.736;2023-04-03T01:26:32;2.10;99.90
28484;DHT22;15704;48.834;8.736;2023-04-03T01:29:04;2.10;99.90
28484;DHT22;15704;48.834;8.736;2023-04-03T01:31:52;2.10;99.90
28484;DHT22;15704;48.834;8.736;2023-04-03T01:34:20;2.00;99.90
28484;DHT22;15704;48.834;8.736;2023-04-03T01:36:47;2.00;99.90
28484;DHT22;15704;48.834;8.736;2023-04-03T01:39:14;1.90;99.90
28484;DHT22;15704;48.834;8.736;2023-04-03T01:41:41;2.00;99.90
28484;DHT22;15704;48.834;8.736;2023-04-03T01:44:15;1.90;99.90
28484;DHT22;15704;48.834;8.736;2023-04-03T01:46:58;2.00;99.90
28484;DHT22;15704;48.834;8.736;2023-04-03T01:49:25;2.10;99.90
28484;DHT22;15704;48.834;8.736;2023-04-03T01:51:51;2.10;99.90
28484;DHT22;15704;48.834;8.736;2023-04-03T01:54:18;2.10;99.90
28484;DHT22;15704;48.834;8.736;2023-04-03T01:56:59;2.10;99.90
28484;DHT22;15704;48.834;8.736;2023-04-03T01:59:28;2.10;99.90
28484;DHT22;15704;48.834;8.736;2023-04-03T02:01:54;1.90;99.90
28484;DHT22;15704;48.834;8.736;2023-04-03T02:04:21;1.80;99.90
28484;DHT22;15704;48.834;8.736;2023-04-03T02:06:48;1.90;99.90
28484;DHT22;15704;48.834;8.736;2023-04-03T02:09:18;1.90;99.90
28484;DHT22;15704;48.834;8.736;2023-04-03T02:11:45;1.90;99.90
28484;DHT22;15704;48.834;8.736;2023-04-03T02:14:11;1.90;99.90
28484;DHT22;15704;48.834;8.736;2023-04-03T02:16:38;2.00;99.90
28484;DHT22;15704;48.834;8.736;2023-04-03T02:19:05;1.80;99.90
28484;DHT22;15704;48.834;8.736;2023-04-03T02:21:32;1.90;99.90
28484;DHT22;15704;48.834;8.736;2023-04-03T02:23:58;1.90;99.90
28484;DHT22;15704;48.834;8.736;2023-04-03T02:26:25;1.80;99.90
28484;DHT22;15704;48.834;8.736;2023-04-03T02:28:53;1.80;99.90
28484;DHT22;15704;48.834;8.736;2023-04-03T02:31:19;1.70;99.90
28484;DHT22;15704;48.834;8.736;2023-04-03T02:33:47;1.70;99.90
28484;DHT22;15704;48.834;8.736;2023-04-03T02:36:14;1.70;99.90
28484;DHT22;15704;48.834;8.736;2023-04-03T02:38:41;1.80;99.90
28484;DHT22;15704;48.834;8.736;2023-04-03T02:41:10;1.80;99.90
28484;DHT22;15704;48.834;8.736;2023-04-03T02:43:37;1.70;99.90
28484;DHT22;15704;48.834;8.736;2023-04-03T02:46:05;1.70;99.90
28484;DHT22;15704;48.834;8.736;2023-04-03T02:48:33;1.70;99.90
28484;DHT22;15704;48.834;8.736;2023-04-03T02:51:00;1.60;99.90
28484;DHT22;15704;48.834;8.736;2023-04-03T02:53:38;1.60;99.90
28484;DHT22;15704;48.834;8.736;2023-04-03T02:56:22;1.60;99.90
28484;DHT22;15704;48.834;8.736;2023-04-03T02:58:49;1.50;99.90
28484;DHT22;15704;48.834;8.736;2023-04-03T03:01:15;1.50;99.90
28484;DHT22;15704;48.834;8.736;2023-04-03T03:03:42;1.50;99.90
28484;DHT22;15704;48.834;8.736;2023-04-03T03:06:14;1.60;99.90
28484;DHT22;15704;48.834;8.736;2023-04-03T03:08:43;1.60;99.90
28484;DHT22;15704;48.834;8.736;2023-04-03T03:11:18;1.60;99.90
28484;DHT22;15704;48.834;8.736;2023-04-03T03:13:48;1.60;99.90
28484;DHT22;15704;48.834;8.736;2023-04-03T03:16:15;1.60;99.90
28484;DHT22;15704;48.834;8.736;2023-04-03T03:18:41;1.60;99.90
28484;DHT22;15704;48.834;8.736;2023-04-03T03:21:09;1.40;99.90
28484;DHT22;15704;48.834;8.736;2023-04-03T03:23:36;1.50;99.90
28484;DHT22;15704;48.834;8.736;2023-04-03T03:26:06;1.50;99.90
28484;DHT22;15704;48.834;8.736;2023-04-03T03:28:34;1.50;99.90
28484;DHT22;15704;48.834;8.736;2023-04-03T03:31:03;1.60;99.90
28484;DHT22;15704;48.834;8.736;2023-04-03T03:33:36;1.70;99.90
28484;DHT22;15704;48.834;8.736;2023-04-03T03:36:06;1.60;99.90
28484;DHT22;15704;48.834;8.736;2023-04-03T03:38:32;1.70;99.90
28484;DHT22;15704;48.834;8.736;2023-04-03T03:40:59;1.60;99.90
28484;DHT22;15704;48.834;8.736;2023-04-03T03:43:27;1.70;99.90
28484;DHT22;15704;48.834;8.736;2023-04-03T03:45:54;1.70;99.90
28484;DHT22;15704;48.834;8.736;2023-04-03T03:48:22;1.60;99.90
28484;DHT22;15704;48.834;8.736;2023-04-03T03:50:49;1.70;99.90
28484;DHT22;15704;48.834;8.736;2023-04-03T03:53:16;1.70;99.90
28484;DHT22;15704;48.834;8.736;2023-04-03T03:55:43;1.70;99.90
28484;DHT22;15704;48.834;8.736;2023-04-03T03:58:10;1.70;99.90
28484;DHT22;15704;48.834;8.736;2023-04-03T04:00:37;1.70;99.90
28484;DHT22;15704;48.834;8.736;2023-04-03T04:03:03;1.70;99.90
28484;DHT22;15704;48.834;8.736;2023-04-03T04:05:31;1.70;99.90
28484;DHT22;15704;48.834;8.736;2023-04-03T04:07:57;1.90;99.90
28484;DHT22;15704;48.834;8.736;2023-04-03T04:10:24;1.90;99.90
28484;DHT22;15704;48.834;8.736;2023-04-03T04:12:51;1.80;99.90
28484;DHT22;15704;48.834;8.736;2023-04-03T04:15:18;1.80;99.90
28484;DHT22;15704;48.834;8.736;2023-04-03T04:17:45;1.90;99.90
28484;DHT22;15704;48.834;8.736;2023-04-03T04:20:12;1.90;99.90
28484;DHT22;15704;48.834;8.736;2023-04-03T04:22:38;1.90;99.90
28484;DHT22;15704;48.834;8.736;2023-04-03T04:25:05;1.90;99.90
28484;DHT22;15704;48.834;8.736;2023-04-03T04:27:32;1.90;99.90
28484;DHT22;15704;48.834;8.736;2023-04-03T04:29:59;1.90;99.90
28484;DHT22;15704;48.834;8.736;2023-04-03T04:32:26;2.00;99.90
28484;DHT22;15704;48.834;8.736;2023-04-03T04:34:52;1.90;99.90
28484;DHT22;15704;48.834;8.736;2023-04-03T04:37:19;1.90;99.90
28484;DHT22;15704;48.834;8.736;2023-04-03T04:39:46;1.90;99.90
28484;DHT22;15704;48.834;8.736;2023-04-03T04:42:13;1.90;99.90
28484;DHT22;15704;48.834;8.736;2023-04-03T04:44:43;2.00;99.90
28484;DHT22;15704;48.834;8.736;2023-04-03T04:47:10;1.90;99.90
28484;DHT22;15704;48.834;8.736;2023-04-03T04:49:36;1.90;99.90
28484;DHT22;15704;48.834;8.736;2023-04-03T04:52:03;2.00;99.90
28484;DHT22;15704;48.834;8.736;2023-04-03T04:54:30;1.90;99.90
28484;DHT22;15704;48.834;8.736;2023-04-03T04:57:06;1.80;99.90
28484;DHT22;15704;48.834;8.736;2023-04-03T04:59:40;1.90;99.90
28484;DHT22;15704;48.834;8.736;2023-04-03T05:02:06;2.00;99.90
28484;DHT22;15704;48.834;8.736;2023-04-03T05:04:33;1.90;99.90
28484;DHT22;15704;48.834;8.736;2023-04-03T05:07:00;2.00;99.90
28484;DHT22;15704;48.834;8.736;2023-04-03T05:09:27;2.10;99.90
28484;DHT22;15704;48.834;8.736;2023-04-03T05:11:53;2.10;99.90
28484;DHT22;15704;48.834;8.736;2023-04-03T05:14:20;2.10;99.90
28484;DHT22;15704;48.834;8.736;2023-04-03T05:16:47;2.20;99.90
28484;DHT22;15704;48.834;8.736;2023-04-03T05:19:17;2.10;99.90
28484;DHT22;15704;48.834;8.736;2023-04-03T05:21:43;2.10;99.90
28484;DHT22;15704;48.834;8.736;2023-04-03T05:24:13;2.10;99.90
28484;DHT22;15704;48.834;8.736;2023-04-03T05:26:45;2.20;99.90
28484;DHT22;15704;48.834;8.736;2023-04-03T05:29:12;2.30;99.90
28484;DHT22;15704;48.834;8.736;2023-04-03T05:31:39;2.30;99.90
28484;DHT22;15704;48.834;8.736;2023-04-03T05:34:06;2.30;99.90
28484;DHT22;15704;48.834;8.736;2023-04-03T05:36:32;2.40;99.90
28484;DHT22;15704;48.834;8.736;2023-04-03T05:38:59;2.40;99.90
28484;DHT22;15704;48.834;8.736;2023-04-03T05:41:26;2.30;99.90
28484;DHT22;15704;48.834;8.736;2023-04-03T05:43:53;2.30;99.90
28484;DHT22;15704;48.834;8.736;2023-04-03T05:46:20;2.30;99.90
28484;DHT22;15704;48.834;8.736;2023-04-03T05:49:06;2.20;99.90
28484;DHT22;15704;48.834;8.736;2023-04-03T05:51:35;2.30;99.90
28484;DHT22;15704;48.834;8.736;2023-04-03T05:54:12;2.40;99.90
28484;DHT22;15704;48.834;8.736;2023-04-03T05:56:40;2.40;99.90
28484;DHT22;15704;48.834;8.736;2023-04-03T05:59:07;2.50;99.90
28484;DHT22;15704;48.834;8.736;2023-04-03T06:01:34;2.30;99.90
28484;DHT22;15704;48.834;8.736;2023-04-03T06:04:01;2.40;99.90
28484;DHT22;15704;48.834;8.736;2023-04-03T06:06:52;2.50;99.90
28484;DHT22;15704;48.834;8.736;2023-04-03T06:09:21;2.40;99.90
28484;DHT22;15704;48.834;8.736;2023-04-03T06:11:48;2.40;99.90
28484;DHT22;15704;48.834;8.736;2023-04-03T06:14:15;2.50;99.90
28484;DHT22;15704;48.834;8.736;2023-04-03T06:16:42;2.40;99.90
28484;DHT22;15704;48.834;8.736;2023-04-03T06:19:11;2.50;99.90
28484;DHT22;15704;48.834;8.736;2023-04-03T06:21:38;2.60;99.90
28484;DHT22;15704;48.834;8.736;2023-04-03T06:24:05;2.60;99.90
28484;DHT22;15704;48.834;8.736;2023-04-03T06:26:34;2.80;99.90
28484;DHT22;15704;48.834;8.736;2023-04-03T06:29:01;2.80;99.90
28484;DHT22;15704;48.834;8.736;2023-04-03T06:31:29;2.30;99.90
28484;DHT22;15704;48.834;8.736;2023-04-03T06:33:56;2.80;99.90
28484;DHT22;15704;48.834;8.736;2023-04-03T06:36:23;2.80;99.90
28484;DHT22;15704;48.834;8.736;2023-04-03T06:38:50;2.80;99.90
28484;DHT22;15704;48.834;8.736;2023-04-03T06:41:17;2.80;99.90
28484;DHT22;15704;48.834;8.736;2023-04-03T06:43:44;3.00;99.90
28484;DHT22;15704;48.834;8.736;2023-04-03T06:46:20;3.20;99.90
28484;DHT22;15704;48.834;8.736;2023-04-03T06:48:48;3.40;99.90
28484;DHT22;15704;48.834;8.736;2023-04-03T06:51:20;3.30;99.90
28484;DHT22;15704;48.834;8.736;2023-04-03T06:53:48;3.20;99.90
28484;DHT22;15704;48.834;8.736;2023-04-03T06:56:15;3.40;99.90
28484;DHT22;15704;48.834;8.736;2023-04-03T06:58:49;3.30;99.90
28484;DHT22;15704;48.834;8.736;2023-04-03T07:01:17;2.80;99.90
28484;DHT22;15704;48.834;8.736;2023-04-03T07:03:55;2.90;99.90
28484;DHT22;15704;48.834;8.736;2023-04-03T07:06:24;3.10;99.90
28484;DHT22;15704;48.834;8.736;2023-04-03T07:08:54;3.40;99.90
28484;DHT22;15704;48.834;8.736;2023-04-03T07:11:21;3.00;99.90
28484;DHT22;15704;48.834;8.736;2023-04-03T07:13:49;3.00;99.90
28484;DHT22;15704;48.834;8.736;2023-04-03T07:16:16;3.00;99.90
28484;DHT22;15704;48.834;8.736;2023-04-03T07:18:43;3.10;99.90
28484;DHT22;15704;48.834;8.736;2023-04-03T07:21:10;2.90;99.90
28484;DHT22;15704;48.834;8.736;2023-04-03T07:23:37;3.00;99.90
28484;DHT22;15704;48.834;8.736;2023-04-03T07:26:04;3.10;99.90
28484;DHT22;15704;48.834;8.736;2023-04-03T07:28:30;2.90;99.90
28484;DHT22;15704;48.834;8.736;2023-04-03T07:31:09;2.90;99.90
28484;DHT22;15704;48.834;8.736;2023-04-03T07:33:37;2.90;99.90
28484;DHT22;15704;48.834;8.736;2023-04-03T07:36:44;3.40;99.90
28484;DHT22;15704;48.834;8.736;2023-04-03T07:39:29;3.30;99.90
28484;DHT22;15704;48.834;8.736;2023-04-03T07:41:56;3.40;99.90
28484;DHT22;15704;48.834;8.736;2023-04-03T07:44:22;3.20;99.90
28484;DHT22;15704;48.834;8.736;2023-04-03T07:46:49;3.30;99.90
28484;DHT22;15704;48.834;8.736;2023-04-03T07:49:17;3.70;99.90
28484;DHT22;15704;48.834;8.736;2023-04-03T07:51:49;3.50;99.90
28484;DHT22;15704;48.834;8.736;2023-04-03T07:54:16;3.60;99.90
28484;DHT22;15704;48.834;8.736;2023-04-03T07:56:43;3.40;99.90
28484;DHT22;15704;48.834;8.736;2023-04-03T07:59:18;3.20;99.90
28484;DHT22;15704;48.834;8.736;2023-04-03T08:01:49;3.20;99.90
28484;DHT22;15704;48.834;8.736;2023-04-03T08:04:16;3.30;99.90
28484;DHT22;15704;48.834;8.736;2023-04-03T08:06:43;3.60;99.90
28484;DHT22;15704;48.834;8.736;2023-04-03T08:09:14;3.60;99.90
28484;DHT22;15704;48.834;8.736;2023-04-03T08:11:42;3.50;99.90
28484;DHT22;15704;48.834;8.736;2023-04-03T08:14:08;3.80;99.90
28484;DHT22;15704;48.834;8.736;2023-04-03T08:16:43;3.90;99.90
28484;DHT22;15704;48.834;8.736;2023-04-03T08:19:10;3.40;99.90
28484;DHT22;15704;48.834;8.736;2023-04-03T08:21:51;3.60;99.90
28484;DHT22;15704;48.834;8.736;2023-04-03T08:24:18;4.20;99.90
28484;DHT22;15704;48.834;8.736;2023-04-03T08:26:44;4.20;99.90
28484;DHT22;15704;48.834;8.736;2023-04-03T08:29:11;4.50;99.90
28484;DHT22;15704;48.834;8.736;2023-04-03T08:31:38;4.80;99.90
28484;DHT22;15704;48.834;8.736;2023-04-03T08:34:05;4.60;99.90
28484;DHT22;15704;48.834;8.736;2023-04-03T08:36:32;4.20;99.90
28484;DHT22;15704;48.834;8.736;2023-04-03T08:39:02;4.60;99.90
28484;DHT22;15704;48.834;8.736;2023-04-03T08:41:45;5.10;99.90
28484;DHT22;15704;48.834;8.736;2023-04-03T08:47:42;4.70;99.90
28484;DHT22;15704;48.834;8.736;2023-04-03T08:50:17;4.60;99.90
28484;DHT22;15704;48.834;8.736;2023-04-03T08:52:48;4.80;99.90
28484;DHT22;15704;48.834;8.736;2023-04-03T08:55:28;4.80;99.90
28484;DHT22;15704;48.834;8.736;2023-04-03T08:58:06;4.80;99.90
28484;DHT22;15704;48.834;8.736;2023-04-03T09:00:57;5.00;99.90
28484;DHT22;15704;48.834;8.736;2023-04-03T09:03:28;5.10;99.90
28484;DHT22;15704;48.834;8.736;2023-04-03T09:06:05;5.30;99.90
28484;DHT22;15704;48.834;8.736;2023-04-03T09:08:40;5.00;99.90
28484;DHT22;15704;48.834;8.736;2023-04-03T09:14:07;6.00;99.90
28484;DHT22;15704;48.834;8.736;2023-04-03T09:16:59;5.80;99.90
28484;DHT22;15704;48.834;8.736;2023-04-03T09:19:43;6.00;99.90
28484;DHT22;15704;48.834;8.736;2023-04-03T09:22:24;6.10;99.90
28484;DHT22;15704;48.834;8.736;2023-04-03T09:25:02;6.20;99.90
28484;DHT22;15704;48.834;8.736;2023-04-03T09:27:32;6.30;99.90
28484;DHT22;15704;48.834;8.736;2023-04-03T09:29:58;6.20;99.90
28484;DHT22;15704;48.834;8.736;2023-04-03T09:32:28;6.10;99.90
28484;DHT22;15704;48.834;8.736;2023-04-03T09:35:02;5.80;99.90
28484;DHT22;15704;48.834;8.736;2023-04-03T09:40:41;5.20;99.90
28484;DHT22;15704;48.834;8.736;2023-04-03T09:43:27;5.20;99.90
28484;DHT22;15704;48.834;8.736;2023-04-03T09:45:56;5.30;99.90
28484;DHT22;15704;48.834;8.736;2023-04-03T09:48:26;5.80;99.90
28484;DHT22;15704;48.834;8.736;2023-04-03T09:50:57;5.70;99.90
28484;DHT22;15704;48.834;8.736;2023-04-03T09:53:41;5.10;99.90
28484;DHT22;15704;48.834;8.736;2023-04-03T09:58:46;6.10;99.90
28484;DHT22;15704;48.834;8.736;2023-04-03T10:01:26;5.70;99.90
28484;DHT22;15704;48.834;8.736;2023-04-03T10:04:15;6.20;99.90
28484;DHT22;15704;48.834;8.736;2023-04-03T10:06:44;6.60;99.90
28484;DHT22;15704;48.834;8.736;2023-04-03T10:09:26;6.30;99.90
28484;DHT22;15704;48.834;8.736;2023-04-03T10:12:10;6.80;99.90
28484;DHT22;15704;48.834;8.736;2023-04-03T10:15:01;6.50;99.90
28484;DHT22;15704;48.834;8.736;2023-04-03T10:17:44;6.50;99.90
28484;DHT22;15704;48.834;8.736;2023-04-03T10:20:33;6.00;99.90
28484;DHT22;15704;48.834;8.736;2023-04-03T10:42:28;5.90;99.90
28484;DHT22;15704;48.834;8.736;2023-04-03T10:56:31;5.90;99.90
28484;DHT22;15704;48.834;8.736;2023-04-03T11:01:38;5.90;99.90
28484;DHT22;15704;48.834;8.736;2023-04-03T11:04:10;5.60;99.90
28484;DHT22;15704;48.834;8.736;2023-04-03T11:06:46;5.60;99.90
28484;DHT22;15704;48.834;8.736;2023-04-03T11:09:31;5.20;99.90
28484;DHT22;15704;48.834;8.736;2023-04-03T11:15:03;5.00;99.90
28484;DHT22;15704;48.834;8.736;2023-04-03T11:17:37;5.00;99.90
28484;DHT22;15704;48.834;8.736;2023-04-03T11:20:18;5.20;99.90
28484;DHT22;15704;48.834;8.736;2023-04-03T11:22:53;5.50;99.90
28484;DHT22;15704;48.834;8.736;2023-04-03T11:25:26;5.30;99.90
28484;DHT22;15704;48.834;8.736;2023-04-03T11:28:02;5.40;99.90
28484;DHT22;15704;48.834;8.736;2023-04-03T11:36:48;5.40;99.90
28484;DHT22;15704;48.834;8.736;2023-04-03T11:39:30;5.80;99.90
28484;DHT22;15704;48.834;8.736;2023-04-03T11:47:50;6.00;99.90
28484;DHT22;15704;48.834;8.736;2023-04-03T11:55:59;5.70;99.90
28484;DHT22;15704;48.834;8.736;2023-04-03T11:58:35;5.50;99.90
28484;DHT22;15704;48.834;8.736;2023-04-03T12:01:09;5.50;99.90
28484;DHT22;15704;48.834;8.736;2023-04-03T12:16:32;6.10;99.90
28484;DHT22;15704;48.834;8.736;2023-04-03T12:19:02;5.60;99.90
28484;DHT22;15704;48.834;8.736;2023-04-03T12:26:46;6.00;99.90
28484;DHT22;15704;48.834;8.736;2023-04-03T12:35:27;5.20;99.90
28484;DHT22;15704;48.834;8.736;2023-04-03T12:48:54;6.00;99.90
28484;DHT22;15704;48.834;8.736;2023-04-03T12:51:35;5.70;99.90
28484;DHT22;15704;48.834;8.736;2023-04-03T12:54:14;5.80;99.90
28484;DHT22;15704;48.834;8.736;2023-04-03T12:56:42;5.90;99.90
28484;DHT22;15704;48.834;8.736;2023-04-03T12:59:20;6.20;99.90
28484;DHT22;15704;48.834;8.736;2023-04-03T13:01:58;6.10;99.90
28484;DHT22;15704;48.834;8.736;2023-04-03T13:04:27;5.80;99.90
28484;DHT22;15704;48.834;8.736;2023-04-03T13:06:54;5.40;99.90
28484;DHT22;15704;48.834;8.736;2023-04-03T13:09:30;5.60;99.90
28484;DHT22;15704;48.834;8.736;2023-04-03T13:12:03;5.90;99.90
28484;DHT22;15704;48.834;8.736;2023-04-03T13:14:36;5.90;99.90
28484;DHT22;15704;48.834;8.736;2023-04-03T13:17:13;6.00;99.90
28484;DHT22;15704;48.834;8.736;2023-04-03T13:19:42;5.90;99.90
28484;DHT22;15704;48.834;8.736;2023-04-03T13:24:55;6.10;99.90
28484;DHT22;15704;48.834;8.736;2023-04-03T13:27:23;6.30;99.90
28484;DHT22;15704;48.834;8.736;2023-04-03T13:29:53;6.50;99.90
28484;DHT22;15704;48.834;8.736;2023-04-03T13:32:23;6.70;99.90
28484;DHT22;15704;48.834;8.736;2023-04-03T13:34:51;6.60;99.90
28484;DHT22;15704;48.834;8.736;2023-04-03T13:37:22;6.20;99.90
28484;DHT22;15704;48.834;8.736;2023-04-03T13:42:35;6.50;99.90
28484;DHT22;15704;48.834;8.736;2023-04-03T13:47:41;6.20;99.90
28484;DHT22;15704;48.834;8.736;2023-04-03T13:52:47;5.90;99.90
28484;DHT22;15704;48.834;8.736;2023-04-03T13:57:57;5.70;99.90
28484;DHT22;15704;48.834;8.736;2023-04-03T14:00:48;5.70;99.90
28484;DHT22;15704;48.834;8.736;2023-04-03T14:05:49;6.00;99.90
28484;DHT22;15704;48.834;8.736;2023-04-03T14:08:18;5.90;99.90
28484;DHT22;15704;48.834;8.736;2023-04-03T14:10:58;6.00;99.90
28484;DHT22;15704;48.834;8.736;2023-04-03T14:13:24;6.20;99.90
28484;DHT22;15704;48.834;8.736;2023-04-03T14:15:51;5.60;99.90
28484;DHT22;15704;48.834;8.736;2023-04-03T14:18:20;5.50;99.90
28484;DHT22;15704;48.834;8.736;2023-04-03T14:20:48;5.60;99.90
28484;DHT22;15704;48.834;8.736;2023-04-03T14:23:15;5.90;99.90
28484;DHT22;15704;48.834;8.736;2023-04-03T14:25:42;6.00;99.90
28484;DHT22;15704;48.834;8.736;2023-04-03T14:28:18;6.20;99.90
28484;DHT22;15704;48.834;8.736;2023-04-03T14:30:49;6.60;99.90
28484;DHT22;15704;48.834;8.736;2023-04-03T14:33:20;6.60;99.90
28484;DHT22;15704;48.834;8.736;2023-04-03T14:35:48;6.30;99.90
28484;DHT22;15704;48.834;8.736;2023-04-03T14:38:24;6.70;99.90
28484;DHT22;15704;48.834;8.736;2023-04-03T14:40:54;6.60;99.90
28484;DHT22;15704;48.834;8.736;2023-04-03T14:43:29;6.40;99.90
28484;DHT22;15704;48.834;8.736;2023-04-03T14:45:56;6.30;99.90
28484;DHT22;15704;48.834;8.736;2023-04-03T14:48:26;5.80;99.90
28484;DHT22;15704;48.834;8.736;2023-04-03T14:50:53;5.90;99.90
28484;DHT22;15704;48.834;8.736;2023-04-03T14:53:31;5.90;99.90
28484;DHT22;15704;48.834;8.736;2023-04-03T14:56:31;5.70;99.90
28484;DHT22;15704;48.834;8.736;2023-04-03T14:59:00;5.50;99.90
28484;DHT22;15704;48.834;8.736;2023-04-03T15:01:29;5.30;99.90
28484;DHT22;15704;48.834;8.736;2023-04-03T15:03:56;5.40;99.90
28484;DHT22;15704;48.834;8.736;2023-04-03T15:06:24;5.50;99.90
28484;DHT22;15704;48.834;8.736;2023-04-03T15:08:51;5.80;99.90
28484;DHT22;15704;48.834;8.736;2023-04-03T15:11:18;5.60;99.90
28484;DHT22;15704;48.834;8.736;2023-04-03T15:13:45;6.00;99.90
28484;DHT22;15704;48.834;8.736;2023-04-03T15:16:16;5.90;99.90
28484;DHT22;15704;48.834;8.736;2023-04-03T15:18:44;5.80;99.90
28484;DHT22;15704;48.834;8.736;2023-04-03T15:21:11;5.80;99.90
28484;DHT22;15704;48.834;8.736;2023-04-03T15:23:38;5.40;99.90
28484;DHT22;15704;48.834;8.736;2023-04-03T15:26:05;5.80;99.90
28484;DHT22;15704;48.834;8.736;2023-04-03T15:28:33;6.00;99.90
28484;DHT22;15704;48.834;8.736;2023-04-03T15:31:00;5.90;99.90
28484;DHT22;15704;48.834;8.736;2023-04-03T15:33:27;5.70;99.90
28484;DHT22;15704;48.834;8.736;2023-04-03T15:35:54;5.50;99.90
28484;DHT22;15704;48.834;8.736;2023-04-03T15:38:33;5.20;99.90
28484;DHT22;15704;48.834;8.736;2023-04-03T15:41:00;5.50;99.90
28484;DHT22;15704;48.834;8.736;2023-04-03T15:43:27;5.40;99.90
28484;DHT22;15704;48.834;8.736;2023-04-03T15:45:56;5.40;99.90
28484;DHT22;15704;48.834;8.736;2023-04-03T15:48:24;5.30;99.90
28484;DHT22;15704;48.834;8.736;2023-04-03T15:50:51;5.30;99.90
28484;DHT22;15704;48.834;8.736;2023-04-03T15:53:18;5.50;99.90
28484;DHT22;15704;48.834;8.736;2023-04-03T15:55:45;5.50;99.90
28484;DHT22;15704;48.834;8.736;2023-04-03T15:58:12;5.30;99.90
28484;DHT22;15704;48.834;8.736;2023-04-03T16:00:39;5.50;99.90
28484;DHT22;15704;48.834;8.736;2023-04-03T16:03:17;5.70;99.90
28484;DHT22;15704;48.834;8.736;2023-04-03T16:05:45;5.70;99.90
28484;DHT22;15704;48.834;8.736;2023-04-03T16:08:12;5.80;99.90
28484;DHT22;15704;48.834;8.736;2023-04-03T16:10:39;5.90;99.90
28484;DHT22;15704;48.834;8.736;2023-04-03T16:13:06;5.70;99.90
28484;DHT22;15704;48.834;8.736;2023-04-03T16:15:34;5.60;99.90
28484;DHT22;15704;48.834;8.736;2023-04-03T16:18:02;5.50;99.90
28484;DHT22;15704;48.834;8.736;2023-04-03T16:20:29;5.50;99.90
28484;DHT22;15704;48.834;8.736;2023-04-03T16:23:00;5.40;99.90
28484;DHT22;15704;48.834;8.736;2023-04-03T16:25:27;5.30;99.90
28484;DHT22;15704;48.834;8.736;2023-04-03T16:27:54;5.50;99.90
28484;DHT22;15704;48.834;8.736;2023-04-03T16:30:24;5.30;99.90
28484;DHT22;15704;48.834;8.736;2023-04-03T16:32:50;5.10;99.90
28484;DHT22;15704;48.834;8.736;2023-04-03T16:35:20;5.30;99.90
28484;DHT22;15704;48.834;8.736;2023-04-03T16:37:47;5.30;99.90
28484;DHT22;15704;48.834;8.736;2023-04-03T16:40:14;5.20;99.90
28484;DHT22;15704;48.834;8.736;2023-04-03T16:42:41;5.40;99.90
28484;DHT22;15704;48.834;8.736;2023-04-03T16:45:08;5.30;99.90
28484;DHT22;15704;48.834;8.736;2023-04-03T16:47:35;5.50;99.90
28484;DHT22;15704;48.834;8.736;2023-04-03T16:50:02;5.30;99.90
28484;DHT22;15704;48.834;8.736;2023-04-03T16:52:29;5.30;99.90
28484;DHT22;15704;48.834;8.736;2023-04-03T16:54:55;5.20;99.90
28484;DHT22;15704;48.834;8.736;2023-04-03T16:57:25;5.20;99.90
28484;DHT22;15704;48.834;8.736;2023-04-03T16:59:52;5.30;99.90
28484;DHT22;15704;48.834;8.736;2023-04-03T17:02:20;5.10;99.90
28484;DHT22;15704;48.834;8.736;2023-04-03T17:04:51;5.10;99.90
28484;DHT22;15704;48.834;8.736;2023-04-03T17:07:23;5.20;99.90
28484;DHT22;15704;48.834;8.736;2023-04-03T17:09:50;5.30;99.90
28484;DHT22;15704;48.834;8.736;2023-04-03T17:12:17;5.10;99.90
28484;DHT22;15704;48.834;8.736;2023-04-03T17:14:43;5.00;99.90
28484;DHT22;15704;48.834;8.736;2023-04-03T17:17:10;5.00;99.90
28484;DHT22;15704;48.834;8.736;2023-04-03T17:19:38;4.80;99.90
28484;DHT22;15704;48.834;8.736;2023-04-03T17:22:07;4.70;99.90
28484;DHT22;15704;48.834;8.736;2023-04-03T17:24:34;4.60;99.90
28484;DHT22;15704;48.834;8.736;2023-04-03T17:27:03;4.50;99.90
28484;DHT22;15704;48.834;8.736;2023-04-03T17:29:30;4.50;99.90
28484;DHT22;15704;48.834;8.736;2023-04-03T17:31:56;4.50;99.90
28484;DHT22;15704;48.834;8.736;2023-04-03T17:34:23;4.50;99.90
28484;DHT22;15704;48.834;8.736;2023-04-03T17:36:50;4.40;99.90
28484;DHT22;15704;48.834;8.736;2023-04-03T17:39:17;4.30;99.90
28484;DHT22;15704;48.834;8.736;2023-04-03T17:41:44;4.20;99.90
28484;DHT22;15704;48.834;8.736;2023-04-03T17:44:15;4.20;99.90
28484;DHT22;15704;48.834;8.736;2023-04-03T17:46:41;4.00;99.90
28484;DHT22;15704;48.834;8.736;2023-04-03T17:49:09;4.10;99.90
28484;DHT22;15704;48.834;8.736;2023-04-03T17:51:41;4.00;99.90
28484;DHT22;15704;48.834;8.736;2023-04-03T17:54:08;4.00;99.90
28484;DHT22;15704;48.834;8.736;2023-04-03T17:56:35;3.90;99.90
28484;DHT22;15704;48.834;8.736;2023-04-03T17:59:01;3.90;99.90
28484;DHT22;15704;48.834;8.736;2023-04-03T18:01:30;3.80;99.90
28484;DHT22;15704;48.834;8.736;2023-04-03T18:04:00;3.70;99.90
28484;DHT22;15704;48.834;8.736;2023-04-03T18:09:30;3.60;99.90